createdAt,value
2022-08-02T00:00:03.138Z,30.20
2022-08-02T00:05:11.175Z,30.20
2022-08-02T00:10:14.530Z,30.20
2022-08-02T00:15:17.833Z,30.20
2022-08-02T00:20:22.629Z,30.20
2022-08-02T00:25:26.023Z,30.20
2022-08-02T00:30:29.497Z,30.20
2022-08-02T00:35:34.391Z,30.20
2022-08-02T00:40:49.301Z,30.30
2022-08-02T00:46:02.189Z,30.20
2022-08-02T00:51:08.261Z,30.20
2022-08-02T00:56:11.761Z,30.20
2022-08-02T01:01:16.567Z,30.10
2022-08-02T01:06:21.260Z,30.10
2022-08-02T01:11:24.561Z,30.00
2022-08-02T01:16:32.661Z,29.90
2022-08-02T01:21:50.925Z,29.90
2022-08-02T01:26:59.467Z,29.90
2022-08-02T01:32:09.537Z,29.90
2022-08-02T01:37:19.530Z,29.90
2022-08-02T01:42:23.718Z,29.80
2022-08-02T01:47:35.531Z,29.80
2022-08-02T01:52:53.432Z,29.80
2022-08-02T01:57:59.722Z,29.80
2022-08-02T02:03:09.208Z,29.80
2022-08-02T02:08:13.691Z,29.80
2022-08-02T02:13:33.869Z,29.90
2022-08-02T02:18:43.883Z,29.90
2022-08-02T02:23:50.878Z,29.90
2022-08-02T02:28:55.266Z,29.90
2022-08-02T02:34:03.216Z,29.90
2022-08-02T02:39:13.589Z,29.90
2022-08-02T02:44:20.863Z,30.00
2022-08-02T02:49:27.141Z,29.90
2022-08-02T02:54:34.510Z,29.80
2022-08-02T02:59:49.221Z,29.80
2022-08-02T03:04:58.105Z,29.70
2022-08-02T03:10:02.128Z,29.70
2022-08-02T03:15:09.487Z,29.70
2022-08-02T03:20:16.668Z,29.60
2022-08-02T03:25:20.610Z,29.60
2022-08-02T03:30:27.739Z,29.60
2022-08-02T03:35:32.785Z,29.50
2022-08-02T03:40:36.740Z,29.50
2022-08-02T03:45:43.168Z,29.40
2022-08-02T03:50:49.455Z,29.40
2022-08-02T03:55:56.138Z,29.40
2022-08-02T04:01:00.121Z,29.30
2022-08-02T04:06:05.062Z,29.40
2022-08-02T04:11:25.759Z,29.40
2022-08-02T04:16:41.011Z,29.40
2022-08-02T04:21:52.120Z,29.50
2022-08-02T04:27:16.994Z,29.60
2022-08-02T04:32:22.463Z,29.60
2022-08-02T04:37:27.936Z,29.60
2022-08-02T04:42:31.508Z,29.60
2022-08-02T04:48:01.831Z,29.60
2022-08-02T04:53:00.361Z,29.60
2022-08-02T04:58:09.726Z,29.70
2022-08-02T05:03:22.155Z,29.80
2022-08-02T05:08:27.448Z,29.80
2022-08-02T05:13:30.961Z,29.80
2022-08-02T05:18:34.328Z,29.80
2022-08-02T05:23:39.176Z,29.80
2022-08-02T05:28:42.636Z,29.80
2022-08-02T05:33:46.102Z,29.80
2022-08-02T05:38:51.585Z,29.80
2022-08-02T05:43:54.900Z,29.80
2022-08-02T05:48:58.311Z,29.90
2022-08-02T05:54:13.550Z,29.90
2022-08-02T05:59:27.226Z,30.00
2022-08-02T06:04:38.773Z,30.00
2022-08-02T06:09:45.523Z,30.10
2022-08-02T06:14:54.087Z,30.10
2022-08-02T06:19:58.973Z,30.20
2022-08-02T06:25:04.811Z,30.20
2022-08-02T06:30:10.188Z,30.30
2022-08-02T06:35:13.562Z,30.40
2022-08-02T06:40:27.999Z,30.40
2022-08-02T06:45:31.360Z,30.40
2022-08-02T06:50:34.841Z,30.50
2022-08-02T06:55:43.511Z,30.50
2022-08-02T07:00:47.525Z,30.50
2022-08-02T07:05:50.887Z,30.50
2022-08-02T07:10:58.395Z,30.50
2022-08-02T07:16:02.172Z,30.50
2022-08-02T07:21:06.269Z,30.50
2022-08-02T07:26:13.727Z,30.60
2022-08-02T07:31:16.991Z,30.60
2022-08-02T07:36:22.361Z,30.60
2022-08-02T07:41:27.600Z,30.60
2022-08-02T07:46:32.529Z,30.60
2022-08-02T07:51:36.715Z,30.60
2022-08-02T07:56:41.530Z,30.70
2022-08-02T08:01:46.044Z,30.70
2022-08-02T08:06:52.405Z,30.70
2022-08-02T08:11:57.116Z,30.80
2022-08-02T08:17:00.436Z,30.80
2022-08-02T08:22:04.126Z,30.90
2022-08-02T08:27:14.558Z,30.90
2022-08-02T08:32:18.838Z,31.00
2022-08-02T08:37:22.434Z,31.00
2022-08-02T08:42:27.896Z,31.10
2022-08-02T08:47:36.374Z,31.10
2022-08-02T08:52:44.500Z,31.20
2022-08-02T08:57:49.369Z,31.20
2022-08-02T09:02:52.995Z,31.30
2022-08-02T09:07:56.413Z,31.40
2022-08-02T09:13:38.049Z,31.40
2022-08-02T09:18:37.243Z,31.60
2022-08-02T09:23:43.233Z,31.70
2022-08-02T09:28:50.189Z,31.80
2022-08-02T09:33:55.907Z,32.00
2022-08-02T09:39:01.562Z,32.10
2022-08-02T09:44:11.631Z,32.30
2022-08-02T09:49:19.453Z,32.50
2022-08-02T09:54:26.308Z,32.70
2022-08-02T09:59:31.545Z,32.90
2022-08-02T10:04:52.543Z,33.10
2022-08-02T10:09:58.272Z,33.30
2022-08-02T10:15:03.482Z,33.50
2022-08-02T10:20:07.675Z,33.70
2022-08-02T10:25:11.694Z,33.90
2022-08-02T10:30:16.647Z,34.00
2022-08-02T10:35:25.922Z,34.10
2022-08-02T10:40:45.373Z,34.10
2022-08-02T10:45:52.451Z,34.20
2022-08-02T10:50:56.433Z,34.40
2022-08-02T10:56:01.127Z,34.60
2022-08-02T11:01:27.463Z,34.80
2022-08-02T11:07:14.229Z,35.10
2022-08-02T11:12:19.111Z,35.30
2022-08-02T11:17:23.816Z,35.60
2022-08-02T11:22:27.202Z,35.80
2022-08-02T11:27:31.468Z,36.00
2022-08-02T11:32:36.542Z,36.10
2022-08-02T11:37:41.603Z,36.20
2022-08-02T11:42:50.628Z,36.30
2022-08-02T11:47:56.149Z,36.50
2022-08-02T11:52:59.480Z,36.60
2022-08-02T11:58:05.848Z,36.70
2022-08-02T12:03:12.679Z,37.00
2022-08-02T12:08:19.096Z,37.10
2022-08-02T12:13:25.516Z,37.30
2022-08-02T12:18:47.824Z,37.40
2022-08-02T12:24:00.176Z,37.50
2022-08-02T12:29:04.789Z,37.60
2022-08-02T12:34:17.781Z,37.60
2022-08-02T12:39:21.507Z,37.50
2022-08-02T12:44:24.936Z,37.50
2022-08-02T12:49:29.678Z,37.50
2022-08-02T12:54:41.966Z,37.50
2022-08-02T12:59:50.925Z,37.50
2022-08-02T13:04:56.011Z,37.60
2022-08-02T13:10:02.515Z,37.60
2022-08-02T13:15:12.342Z,37.60
2022-08-02T13:20:33.189Z,37.70
2022-08-02T13:25:36.764Z,37.70
2022-08-02T13:30:40.313Z,37.70
2022-08-02T13:35:45.776Z,37.70
2022-08-02T13:41:06.436Z,37.70
2022-08-02T13:46:09.774Z,37.70
2022-08-02T13:51:14.804Z,37.60
2022-08-02T13:56:18.327Z,37.60
2022-08-02T14:01:21.714Z,37.60
2022-08-02T14:06:26.596Z,37.60
2022-08-02T14:11:31.046Z,37.70
2022-08-02T14:16:34.380Z,37.70
2022-08-02T14:21:46.786Z,37.80
2022-08-02T14:26:52.072Z,37.90
2022-08-02T14:31:55.432Z,38.00
2022-08-02T14:37:00.399Z,38.00
2022-08-02T14:42:03.811Z,38.00
2022-08-02T14:47:07.421Z,38.00
2022-08-02T14:52:14.708Z,38.00
2022-08-02T14:57:18.316Z,37.90
2022-08-02T15:02:21.635Z,37.90
2022-08-02T15:07:26.456Z,37.80
2022-08-02T15:12:29.759Z,37.70
2022-08-02T15:17:33.414Z,37.60
2022-08-02T15:22:38.053Z,37.50
2022-08-02T15:27:41.405Z,37.40
2022-08-02T15:32:52.967Z,37.20
2022-08-02T15:37:58.163Z,37.10
2022-08-02T15:43:01.493Z,37.00
2022-08-02T15:48:05.674Z,36.90
2022-08-02T15:53:10.365Z,36.70
2022-08-02T15:58:17.046Z,36.50
2022-08-02T16:03:21.442Z,36.40
2022-08-02T16:08:26.225Z,36.30
2022-08-02T16:13:53.060Z,36.20
2022-08-02T16:18:57.773Z,36.10
2022-08-02T16:24:03.436Z,35.90
2022-08-02T16:29:06.835Z,35.90
2022-08-02T16:34:10.481Z,35.80
2022-08-02T16:39:15.697Z,35.70
2022-08-02T16:44:27.611Z,35.60
2022-08-02T16:50:05.092Z,35.50
2022-08-02T16:54:58.316Z,35.40
2022-08-02T17:00:01.672Z,35.40
2022-08-02T17:05:10.891Z,35.30
2022-08-02T17:10:18.740Z,35.20
2022-08-02T17:16:01.589Z,35.10
2022-08-02T17:20:46.697Z,35.00
2022-08-02T17:25:52.669Z,34.90
2022-08-02T17:30:56.282Z,34.80
2022-08-02T17:36:00.103Z,34.70
2022-08-02T17:41:04.788Z,34.60
2022-08-02T17:46:18.400Z,34.60
2022-08-02T17:56:50.711Z,34.50
2022-08-02T18:01:57.339Z,34.40
2022-08-02T18:07:09.891Z,34.30
2022-08-02T18:12:30.239Z,34.30
2022-08-02T18:17:33.561Z,34.20
2022-08-02T18:22:36.868Z,34.20
2022-08-02T18:27:42.248Z,34.10
2022-08-02T18:33:58.234Z,34.00
2022-08-02T18:38:11.826Z,34.00
2022-08-02T18:43:16.683Z,33.90
2022-08-02T18:48:19.970Z,33.90
2022-08-02T18:53:39.296Z,33.80
2022-08-02T18:58:47.456Z,33.70
2022-08-02T19:03:53.151Z,33.60
2022-08-02T19:09:05.271Z,33.60
2022-08-02T19:14:24.211Z,33.50
2022-08-02T19:19:31.872Z,33.50
2022-08-02T19:24:37.911Z,33.40
2022-08-02T19:29:48.832Z,33.40
2022-08-02T19:34:55.958Z,33.30
2022-08-02T19:39:59.587Z,33.30
2022-08-02T19:45:04.479Z,33.20
2022-08-02T19:50:12.674Z,33.20
2022-08-02T19:56:01.049Z,33.10
2022-08-02T20:00:42.551Z,33.10
2022-08-02T20:05:48.465Z,33.10
2022-08-02T20:10:51.891Z,33.00
2022-08-02T20:15:57.430Z,32.90
2022-08-02T20:21:01.269Z,32.90
2022-08-02T20:26:06.364Z,32.80
2022-08-02T20:31:13.786Z,32.70
2022-08-02T20:36:17.061Z,32.60
2022-08-02T20:41:21.908Z,32.60
2022-08-02T20:46:26.699Z,32.60
2022-08-02T20:51:33.753Z,32.50
2022-08-02T20:56:37.606Z,32.50
2022-08-02T21:01:56.893Z,32.40
2022-08-02T21:07:01.083Z,32.30
2022-08-02T21:12:12.575Z,32.30
2022-08-02T21:17:22.303Z,32.20
2022-08-02T21:22:31.161Z,32.20
2022-08-02T21:27:51.695Z,32.10
2022-08-02T21:32:58.459Z,32.10
2022-08-02T21:38:03.598Z,32.00
2022-08-02T21:43:08.842Z,32.00
2022-08-02T21:48:13.698Z,31.90
2022-08-02T21:53:19.005Z,31.90
2022-08-02T21:58:40.633Z,31.80
2022-08-02T22:03:55.617Z,31.80
2022-08-02T22:08:59.128Z,31.80
2022-08-02T22:14:02.440Z,31.70
2022-08-02T22:19:07.097Z,31.70
2022-08-02T22:24:12.851Z,31.60
2022-08-02T22:29:22.602Z,31.60
2022-08-02T22:34:36.825Z,31.50
2022-08-02T22:40:06.022Z,31.50
2022-08-02T22:45:13.119Z,31.50
2022-08-02T22:50:17.942Z,31.40
2022-08-02T22:55:23.026Z,31.30
2022-08-02T22:58:40.788Z,34.50
2022-08-02T23:00:27.520Z,31.30
2022-08-02T23:05:32.964Z,31.20
2022-08-02T23:10:37.164Z,31.20
2022-08-02T23:15:58.386Z,31.10
2022-08-02T23:21:03.033Z,31.00
2022-08-02T23:26:06.340Z,30.90
2022-08-02T23:31:32.072Z,30.90
2022-08-02T23:36:36.679Z,30.80
2022-08-02T23:41:40.101Z,30.80
2022-08-02T23:46:44.527Z,30.70
2022-08-02T23:51:50.253Z,30.80
2022-08-02T23:56:54.143Z,30.80
